createdAt,value
2018-07-22T00:00:04.259Z,50.86
2018-07-22T00:00:44.820Z,51.25
2018-07-22T00:01:25.365Z,51.61
2018-07-22T00:02:05.939Z,51.73
2018-07-22T00:02:46.518Z,51.82
2018-07-22T00:03:27.075Z,51.44
2018-07-22T00:04:07.635Z,51.34
2018-07-22T00:04:48.206Z,51.44
2018-07-22T00:05:28.766Z,51.44
2018-07-22T00:06:09.338Z,51.63
2018-07-22T00:06:49.910Z,51.63
2018-07-22T00:07:30.486Z,51.51
2018-07-22T00:08:11.044Z,51.05
2018-07-22T00:08:51.608Z,51.34
2018-07-22T00:09:32.173Z,51.82
2018-07-22T00:10:12.747Z,51.34
2018-07-22T00:10:53.303Z,51.53
2018-07-22T00:11:33.881Z,51.63
2018-07-22T00:12:14.411Z,51.63
2018-07-22T00:12:55.003Z,51.32
2018-07-22T00:13:35.708Z,51.05
2018-07-22T00:14:16.182Z,50.86
2018-07-22T00:14:56.762Z,50.96
2018-07-22T00:15:37.324Z,50.86
2018-07-22T00:16:17.885Z,51.34
2018-07-22T00:16:58.495Z,51.32
2018-07-22T00:17:39.065Z,51.22
2018-07-22T00:18:19.639Z,51.32
2018-07-22T00:19:00.204Z,50.93
2018-07-22T00:19:40.762Z,51.03
2018-07-22T00:20:21.317Z,51.12
2018-07-22T00:21:01.886Z,50.54
2018-07-22T00:21:42.444Z,50.64
2018-07-22T00:22:23.012Z,50.45
2018-07-22T00:23:03.596Z,50.26
2018-07-22T00:23:44.168Z,49.87
2018-07-22T00:24:24.725Z,50.45
2018-07-22T00:25:05.302Z,49.68
2018-07-22T00:25:45.861Z,50.16
2018-07-22T00:26:26.448Z,50.45
2018-07-22T00:27:07.021Z,50.16
2018-07-22T00:27:47.585Z,50.54
2018-07-22T00:28:28.133Z,50.64
2018-07-22T00:29:08.743Z,50.64
2018-07-22T00:29:49.532Z,50.54
2018-07-22T00:30:29.868Z,51.41
2018-07-22T00:31:10.441Z,51.32
2018-07-22T00:31:51.001Z,51.51
2018-07-22T00:32:31.614Z,51.7
2018-07-22T00:33:12.194Z,51.32
2018-07-22T00:33:52.768Z,51.03
2018-07-22T00:34:33.383Z,50.84
2018-07-22T00:35:13.945Z,50.54
2018-07-22T00:35:54.536Z,50.93
2018-07-22T00:36:35.102Z,51.32
2018-07-22T00:37:15.671Z,50.84
2018-07-22T00:37:56.230Z,50.45
2018-07-22T00:38:36.799Z,50.64
2018-07-22T00:39:17.353Z,50.26
2018-07-22T00:39:57.938Z,50.54
2018-07-22T00:40:38.515Z,50.74
2018-07-22T00:41:19.074Z,50.74
2018-07-22T00:41:59.624Z,50.93
2018-07-22T00:42:40.190Z,50.74
2018-07-22T00:43:20.748Z,50.84
2018-07-22T00:44:01.341Z,51.03
2018-07-22T00:44:41.904Z,51.12
2018-07-22T00:45:22.464Z,51.51
2018-07-22T00:46:03.032Z,51.51
2018-07-22T00:46:43.597Z,51.32
2018-07-22T00:47:24.156Z,51.51
2018-07-22T00:48:04.728Z,51.41
2018-07-22T00:48:45.316Z,51.61
2018-07-22T00:49:25.874Z,51.7
2018-07-22T00:50:06.450Z,51.7
2018-07-22T00:50:47.002Z,51.89
2018-07-22T00:51:27.568Z,52.47
2018-07-22T00:52:08.127Z,52.47
2018-07-22T00:52:48.692Z,52.28
2018-07-22T00:53:29.258Z,52.47
2018-07-22T00:54:09.829Z,52.37
2018-07-22T00:54:50.396Z,52.64
2018-07-22T00:55:30.967Z,52.73
2018-07-22T00:56:11.519Z,52.93
2018-07-22T00:56:52.073Z,52.93
2018-07-22T00:57:32.632Z,52.93
2018-07-22T00:58:13.195Z,53.22
2018-07-22T00:58:53.760Z,52.76
2018-07-22T00:59:34.358Z,52.45
2018-07-22T01:00:14.961Z,52.37
2018-07-22T01:00:55.513Z,52.55
2018-07-22T01:01:36.089Z,53.22
2018-07-22T01:02:16.658Z,53.03
2018-07-22T01:02:57.234Z,53.13
2018-07-22T01:03:37.793Z,53.31
2018-07-22T01:04:18.394Z,53.34
2018-07-22T01:04:59.006Z,53.22
2018-07-22T01:05:39.581Z,53.25
2018-07-22T01:06:20.135Z,53.13
2018-07-22T01:07:00.697Z,53.22
2018-07-22T01:07:41.271Z,53.31
2018-07-22T01:08:21.836Z,52.93
2018-07-22T01:09:02.393Z,53.51
2018-07-22T01:09:42.996Z,53.41
2018-07-22T01:10:23.575Z,53.22
2018-07-22T01:11:04.109Z,53.22
2018-07-22T01:11:44.685Z,52.73
2018-07-22T01:12:25.246Z,52.83
2018-07-22T01:13:05.830Z,53.22
2018-07-22T01:13:46.402Z,52.83
2018-07-22T01:14:27.066Z,52.73
2018-07-22T01:15:07.626Z,52.73
2018-07-22T01:15:48.188Z,52.64
2018-07-22T01:16:28.756Z,52.64
2018-07-22T01:17:09.322Z,52.93
2018-07-22T01:17:49.889Z,52.93
2018-07-22T01:18:30.449Z,52.73
2018-07-22T01:19:11.012Z,52.93
2018-07-22T01:19:51.586Z,52.83
2018-07-22T01:20:32.205Z,52.55
2018-07-22T01:21:12.800Z,53.51
2018-07-22T01:21:53.364Z,53.13
2018-07-22T01:22:33.941Z,53.61
2018-07-22T01:23:14.511Z,53.7
2018-07-22T01:23:55.079Z,54.09
2018-07-22T01:24:35.646Z,53.89
2018-07-22T01:25:16.219Z,53.8
2018-07-22T01:25:56.870Z,53.8
2018-07-22T01:26:37.414Z,53.8
2018-07-22T01:27:17.977Z,53.51
2018-07-22T01:27:58.576Z,53.8
2018-07-22T01:28:39.139Z,53.41
2018-07-22T01:29:19.706Z,53.8
2018-07-22T01:30:00.281Z,53.61
2018-07-22T01:30:40.830Z,53.8
2018-07-22T01:31:21.385Z,53.7
2018-07-22T01:32:01.932Z,53.99
2018-07-22T01:32:42.481Z,53.61
2018-07-22T01:33:23.046Z,53.89
2018-07-22T01:34:03.619Z,53.61
2018-07-22T01:34:44.190Z,53.89
2018-07-22T01:35:24.763Z,53.61
2018-07-22T01:36:05.314Z,53.99
2018-07-22T01:36:45.891Z,53.89
2018-07-22T01:37:26.467Z,53.99
2018-07-22T01:38:07.035Z,53.61
2018-07-22T01:38:47.614Z,53.99
2018-07-22T01:39:28.191Z,54.28
2018-07-22T01:40:08.825Z,54.96
2018-07-22T01:40:49.394Z,54.86
2018-07-22T01:41:29.962Z,54.47
2018-07-22T01:42:10.517Z,55.05
2018-07-22T01:42:51.092Z,54.66
2018-07-22T01:43:31.659Z,54.86
2018-07-22T01:44:12.228Z,55.05
2018-07-22T01:44:52.835Z,55.24
2018-07-22T01:45:33.411Z,54.66
2018-07-22T01:46:13.981Z,54.86
2018-07-22T01:46:54.536Z,54.44
2018-07-22T01:47:35.108Z,54.86
2018-07-22T01:48:15.677Z,54.64
2018-07-22T01:48:56.245Z,54.96
2018-07-22T01:49:36.829Z,55.24
2018-07-22T01:50:17.386Z,54.96
2018-07-22T01:50:57.961Z,54.57
2018-07-22T01:51:38.544Z,55.54
2018-07-22T01:52:19.110Z,55.15
2018-07-22T01:52:59.697Z,55.05
2018-07-22T01:53:40.254Z,54.86
2018-07-22T01:54:20.811Z,55.12
2018-07-22T01:55:01.381Z,54.93
2018-07-22T01:55:41.951Z,55.31
2018-07-22T01:56:22.516Z,55.89
2018-07-22T01:57:03.154Z,55.41
2018-07-22T01:57:43.713Z,55.6
2018-07-22T01:58:24.287Z,55.99
2018-07-22T01:59:04.846Z,55.51
2018-07-22T01:59:45.402Z,55.12
2018-07-22T02:00:25.967Z,55.6
2018-07-22T02:01:06.533Z,55.6
2018-07-22T02:01:47.099Z,55.89
2018-07-22T02:02:27.670Z,56.18
2018-07-22T02:03:08.236Z,55.6
2018-07-22T02:03:48.805Z,55.51
2018-07-22T02:04:29.366Z,55.7
2018-07-22T02:05:09.927Z,55.6
2018-07-22T02:05:50.484Z,55.79
2018-07-22T02:06:31.051Z,55.51
2018-07-22T02:07:11.641Z,55.22
2018-07-22T02:07:52.174Z,55.41
2018-07-22T02:08:32.748Z,55.41
2018-07-22T02:09:13.303Z,56.09
2018-07-22T02:09:53.866Z,56.09
2018-07-22T02:10:34.415Z,56.47
2018-07-22T02:11:14.981Z,56.37
2018-07-22T02:11:55.542Z,56.76
2018-07-22T02:12:36.105Z,56.76
2018-07-22T02:13:16.664Z,57.24
2018-07-22T02:13:57.232Z,57.05
2018-07-22T02:14:37.822Z,56.76
2018-07-22T02:15:18.371Z,57.34
2018-07-22T02:15:58.928Z,57.53
2018-07-22T02:16:39.514Z,57.34
2018-07-22T02:17:20.092Z,57.62
2018-07-22T02:18:00.645Z,57.53
2018-07-22T02:18:41.227Z,57.43
2018-07-22T02:19:21.787Z,57.34
2018-07-22T02:20:02.359Z,57.62
2018-07-22T02:20:42.947Z,58.01
2018-07-22T02:21:23.535Z,57.53
2018-07-22T02:22:04.059Z,57.53
2018-07-22T02:22:44.642Z,57.34
2018-07-22T02:23:25.204Z,57.62
2018-07-22T02:24:05.758Z,57.72
2018-07-22T02:24:46.331Z,58.2
2018-07-22T02:25:26.894Z,58.3
2018-07-22T02:26:07.451Z,58.4
2018-07-22T02:26:48.020Z,58.49
2018-07-22T02:27:28.588Z,58.69
2018-07-22T02:28:09.141Z,58.56
2018-07-22T02:28:49.705Z,58.59
2018-07-22T02:29:30.256Z,58.56
2018-07-22T02:30:10.808Z,58.65
2018-07-22T02:30:51.362Z,58.56
2018-07-22T02:31:31.914Z,58.85
2018-07-22T02:32:12.488Z,58.65
2018-07-22T02:32:53.058Z,58.65
2018-07-22T02:33:33.614Z,58.65
2018-07-22T02:34:14.190Z,58.56
2018-07-22T02:34:54.757Z,58.88
2018-07-22T02:35:35.317Z,58.65
2018-07-22T02:36:15.880Z,58.95
2018-07-22T02:36:56.423Z,59.04
2018-07-22T02:37:37.019Z,59.23
2018-07-22T02:38:17.578Z,58.95
2018-07-22T02:38:58.142Z,59.14
2018-07-22T02:39:38.706Z,59.72
2018-07-22T02:40:19.276Z,59.43
2018-07-22T02:40:59.845Z,59.43
2018-07-22T02:41:40.417Z,59.81
2018-07-22T02:42:20.978Z,59.72
2018-07-22T02:43:01.539Z,59.91
2018-07-22T02:43:42.110Z,59.91
2018-07-22T02:44:22.664Z,59.81
2018-07-22T02:45:03.228Z,59.91
2018-07-22T02:45:43.785Z,60.3
2018-07-22T02:46:24.417Z,60.49
2018-07-22T02:47:04.984Z,60.3
2018-07-22T02:47:45.541Z,60.3
2018-07-22T02:48:26.107Z,60
2018-07-22T02:49:06.691Z,60.3
2018-07-22T02:49:47.259Z,60
2018-07-22T02:50:27.839Z,59.81
2018-07-22T02:51:08.392Z,59.81
2018-07-22T02:51:48.950Z,60.2
2018-07-22T02:52:29.522Z,59.72
2018-07-22T02:53:10.098Z,59.91
2018-07-22T02:53:50.677Z,60.3
2018-07-22T02:54:31.237Z,60.39
2018-07-22T02:55:11.925Z,60.2
2018-07-22T02:55:52.633Z,60.58
2018-07-22T02:56:33.189Z,60.58
2018-07-22T02:57:13.761Z,60.1
2018-07-22T02:57:54.331Z,60.87
2018-07-22T02:58:34.895Z,60.77
2018-07-22T02:59:15.468Z,60.3
2018-07-22T02:59:56.039Z,60.2
2018-07-22T03:00:36.667Z,60.77
2018-07-22T03:01:17.238Z,60.49
2018-07-22T03:01:57.800Z,60.97
2018-07-22T03:02:38.365Z,60.49
2018-07-22T03:03:18.958Z,60.58
2018-07-22T03:03:59.488Z,61.16
2018-07-22T03:04:40.051Z,60.97
2018-07-22T03:05:20.618Z,60.87
2018-07-22T03:06:01.185Z,60.39
2018-07-22T03:06:41.739Z,60.77
2018-07-22T03:07:22.293Z,60.87
2018-07-22T03:08:02.861Z,60.97
2018-07-22T03:08:43.420Z,60.58
2018-07-22T03:09:23.980Z,60.58
2018-07-22T03:10:04.548Z,61.07
2018-07-22T03:10:45.107Z,61.25
2018-07-22T03:11:25.706Z,60.87
2018-07-22T03:12:06.285Z,61.45
2018-07-22T03:12:46.869Z,61.65
2018-07-22T03:13:27.451Z,61.25
2018-07-22T03:14:08.014Z,61.55
2018-07-22T03:14:48.573Z,61.55
2018-07-22T03:15:29.144Z,61.55
2018-07-22T03:16:09.715Z,61.74
2018-07-22T03:16:50.283Z,61.55
2018-07-22T03:17:30.843Z,61.74
2018-07-22T03:18:11.431Z,61.45
2018-07-22T03:18:51.972Z,62.12
2018-07-22T03:19:32.547Z,61.93
2018-07-22T03:20:13.107Z,62.12
2018-07-22T03:20:53.686Z,62.22
2018-07-22T03:21:34.263Z,61.93
2018-07-22T03:22:14.825Z,61.55
2018-07-22T03:22:55.401Z,62.32
2018-07-22T03:23:35.956Z,61.83
2018-07-22T03:24:16.525Z,62.12
2018-07-22T03:24:57.098Z,62.03
2018-07-22T03:25:37.664Z,61.65
2018-07-22T03:26:18.221Z,62.22
2018-07-22T03:26:58.781Z,62.03
2018-07-22T03:27:39.355Z,62.12
2018-07-22T03:28:19.912Z,62.03
2018-07-22T03:29:00.520Z,61.35
2018-07-22T03:29:41.097Z,61.93
2018-07-22T03:30:21.661Z,62.12
2018-07-22T03:31:02.238Z,62.03
2018-07-22T03:31:42.791Z,62.19
2018-07-22T03:32:23.355Z,61.83
2018-07-22T03:33:03.933Z,62.22
2018-07-22T03:33:44.502Z,62.41
2018-07-22T03:34:25.091Z,62.67
2018-07-22T03:35:05.634Z,62.57
2018-07-22T03:35:46.217Z,62.41
2018-07-22T03:36:26.779Z,62.67
2018-07-22T03:37:07.740Z,62.6
2018-07-22T03:37:48.313Z,62.6
2018-07-22T03:38:28.870Z,62.67
2018-07-22T03:39:09.430Z,62.57
2018-07-22T03:39:49.991Z,62.7
2018-07-22T03:40:30.569Z,62.48
2018-07-22T03:41:11.130Z,62.77
2018-07-22T03:41:51.700Z,62.67
2018-07-22T03:42:32.265Z,62.67
2018-07-22T03:43:12.828Z,63.28
2018-07-22T03:43:53.388Z,63.15
2018-07-22T03:44:33.962Z,63.85
2018-07-22T03:45:14.531Z,62.96
2018-07-22T03:45:55.109Z,63.44
2018-07-22T03:46:35.668Z,63.34
2018-07-22T03:47:16.297Z,63.76
2018-07-22T03:47:56.818Z,63.28
2018-07-22T03:48:37.383Z,63.64
2018-07-22T03:49:17.949Z,63.76
2018-07-22T03:49:58.549Z,63.44
2018-07-22T03:50:39.128Z,63.76
2018-07-22T03:51:19.680Z,63.57
2018-07-22T03:52:00.238Z,63.47
2018-07-22T03:52:40.808Z,63.47
2018-07-22T03:53:21.356Z,63.47
2018-07-22T03:54:01.888Z,63.15
2018-07-22T03:54:42.463Z,63.54
2018-07-22T03:55:23.030Z,63.76
2018-07-22T03:56:03.611Z,63.18
2018-07-22T03:56:44.177Z,63.85
2018-07-22T03:57:24.768Z,63.57
2018-07-22T03:58:05.339Z,63.54
2018-07-22T03:58:45.910Z,63.47
2018-07-22T03:59:26.486Z,63.47
2018-07-22T04:00:07.053Z,63.47
2018-07-22T04:00:47.631Z,63.67
2018-07-22T04:01:28.195Z,63.47
2018-07-22T04:02:08.765Z,63.38
2018-07-22T04:02:49.319Z,63.09
2018-07-22T04:03:29.887Z,63.09
2018-07-22T04:04:10.444Z,63.09
2018-07-22T04:04:51.013Z,63.28
2018-07-22T04:05:31.583Z,63.18
2018-07-22T04:06:12.159Z,63.57
2018-07-22T04:06:52.749Z,63.47
2018-07-22T04:07:33.292Z,63.09
2018-07-22T04:08:13.868Z,63.76
2018-07-22T04:08:54.446Z,63.76
2018-07-22T04:09:35.008Z,63.85
2018-07-22T04:10:15.565Z,63.67
2018-07-22T04:10:56.124Z,62.99
2018-07-22T04:11:36.692Z,64.15
2018-07-22T04:12:17.259Z,63.57
2018-07-22T04:12:57.826Z,63.76
2018-07-22T04:13:38.401Z,63.95
2018-07-22T04:14:18.984Z,63.18
2018-07-22T04:14:59.577Z,62.99
2018-07-22T04:15:40.143Z,63.95
2018-07-22T04:16:20.708Z,63.47
2018-07-22T04:17:01.284Z,64.05
2018-07-22T04:17:41.827Z,63.76
2018-07-22T04:18:22.390Z,63.76
2018-07-22T04:19:02.961Z,63.57
2018-07-22T04:19:43.526Z,63.95
2018-07-22T04:20:24.085Z,63.38
2018-07-22T04:21:04.663Z,63.67
2018-07-22T04:21:45.236Z,64.15
2018-07-22T04:22:25.800Z,64.05
2018-07-22T04:23:06.369Z,64.05
2018-07-22T04:23:46.943Z,64.73
2018-07-22T04:24:27.497Z,64.53
2018-07-22T04:25:08.061Z,64.63
2018-07-22T04:25:48.631Z,64.82
2018-07-22T04:26:29.194Z,64.63
2018-07-22T04:27:09.798Z,65.01
2018-07-22T04:27:50.354Z,64.73
2018-07-22T04:28:30.935Z,64.63
2018-07-22T04:29:11.501Z,64.63
2018-07-22T04:29:52.066Z,64.53
2018-07-22T04:30:32.626Z,64.92
2018-07-22T04:31:13.196Z,64.73
2018-07-22T04:31:53.761Z,64.53
2018-07-22T04:32:34.328Z,64.53
2018-07-22T04:33:14.900Z,64.73
2018-07-22T04:33:55.480Z,64.63
2018-07-22T04:34:36.043Z,64.63
2018-07-22T04:35:16.623Z,64.73
2018-07-22T04:35:57.185Z,64.73
2018-07-22T04:36:37.752Z,65.2
2018-07-22T04:37:18.305Z,65.11
2018-07-22T04:37:58.875Z,64.73
2018-07-22T04:38:39.443Z,64.73
2018-07-22T04:39:20.011Z,64.63
2018-07-22T04:40:00.611Z,65.2
2018-07-22T04:40:41.184Z,65.11
2018-07-22T04:41:21.753Z,65.78
2018-07-22T04:42:02.317Z,65.69
2018-07-22T04:42:42.882Z,65.69
2018-07-22T04:43:23.437Z,66.07
2018-07-22T04:44:04.017Z,66.17
2018-07-22T04:44:44.581Z,65.98
2018-07-22T04:45:25.133Z,66.46
2018-07-22T04:46:05.721Z,66.27
2018-07-22T04:46:46.281Z,66.27
2018-07-22T04:47:26.847Z,66.39
2018-07-22T04:48:07.419Z,66.07
2018-07-22T04:48:47.976Z,65.91
2018-07-22T04:49:28.538Z,65.88
2018-07-22T04:50:09.102Z,65.88
2018-07-22T04:50:49.677Z,65.69
2018-07-22T04:51:30.244Z,65.78
2018-07-22T04:52:10.817Z,65.59
2018-07-22T04:52:51.381Z,65.72
2018-07-22T04:53:31.997Z,65.63
2018-07-22T04:54:12.527Z,65.53
2018-07-22T04:54:53.096Z,65.59
2018-07-22T04:55:33.671Z,65.53
2018-07-22T04:56:14.245Z,65.4
2018-07-22T04:56:54.796Z,65.91
2018-07-22T04:57:35.357Z,65.91
2018-07-22T04:58:15.923Z,65.43
2018-07-22T04:58:56.487Z,65.63
2018-07-22T04:59:37.061Z,65.81
2018-07-22T05:00:17.627Z,65.81
2018-07-22T05:00:58.190Z,65.72
2018-07-22T05:01:38.831Z,66.2
2018-07-22T05:02:19.396Z,66.49
2018-07-22T05:02:59.949Z,66.78
2018-07-22T05:03:40.502Z,66.3
2018-07-22T05:04:21.061Z,67.26
2018-07-22T05:05:01.620Z,67.46
2018-07-22T05:05:42.209Z,67.55
2018-07-22T05:06:22.787Z,68.04
2018-07-22T05:07:03.338Z,67.16
2018-07-22T05:07:43.910Z,67.07
2018-07-22T05:08:24.495Z,66.78
2018-07-22T05:09:05.052Z,67.07
2018-07-22T05:09:45.606Z,67.26
2018-07-22T05:10:26.173Z,67.26
2018-07-22T05:11:06.729Z,68.13
2018-07-22T05:11:47.308Z,68.13
2018-07-22T05:12:27.871Z,66.78
2018-07-22T05:13:08.431Z,65.14
2018-07-22T05:13:49.002Z,64.66
2018-07-22T05:14:29.569Z,63.79
2018-07-22T05:15:10.154Z,63.31
2018-07-22T05:15:50.703Z,62.54
2018-07-22T05:16:31.280Z,62.06
2018-07-22T05:17:11.837Z,61.68
2018-07-22T05:17:52.395Z,61.58
2018-07-22T05:18:32.950Z,62.06
2018-07-22T05:19:13.535Z,61.48
2018-07-22T05:19:54.099Z,61.38
2018-07-22T05:20:34.671Z,61.77
2018-07-22T05:21:15.230Z,61.96
2018-07-22T05:21:55.791Z,62.54
2018-07-22T05:22:36.355Z,62.25
2018-07-22T05:23:16.974Z,62.45
2018-07-22T05:23:57.535Z,63.02
2018-07-22T05:24:38.093Z,63.5
2018-07-22T05:25:18.701Z,63.5
2018-07-22T05:25:59.276Z,63.31
2018-07-22T05:26:39.851Z,63.5
2018-07-22T05:27:20.412Z,63.7
2018-07-22T05:28:00.972Z,63.6
2018-07-22T05:28:41.541Z,63.5
2018-07-22T05:29:22.101Z,63.73
2018-07-22T05:30:02.673Z,63.12
2018-07-22T05:30:43.233Z,63.7
2018-07-22T05:31:23.807Z,63.5
2018-07-22T05:32:04.356Z,63.5
2018-07-22T05:32:44.919Z,63.15
2018-07-22T05:33:25.482Z,63.34
2018-07-22T05:34:06.035Z,63.82
2018-07-22T05:34:46.608Z,63.54
2018-07-22T05:35:27.180Z,63.7
2018-07-22T05:36:07.789Z,64.02
2018-07-22T05:36:48.303Z,64.18
2018-07-22T05:37:28.848Z,64.28
2018-07-22T05:38:09.412Z,64.18
2018-07-22T05:38:49.978Z,63.54
2018-07-22T05:39:30.540Z,63.6
2018-07-22T05:40:11.108Z,63.82
2018-07-22T05:40:51.677Z,63.41
2018-07-22T05:41:32.245Z,63.54
2018-07-22T05:42:12.975Z,63.06
2018-07-22T05:42:53.369Z,63.5
2018-07-22T05:43:33.933Z,62.48
2018-07-22T05:44:14.496Z,62.25
2018-07-22T05:44:55.075Z,61.61
2018-07-22T05:45:35.647Z,62.06
2018-07-22T05:46:16.206Z,62.76
2018-07-22T05:46:56.768Z,62.63
2018-07-22T05:47:37.332Z,62.57
2018-07-22T05:48:17.893Z,62.66
2018-07-22T05:48:58.444Z,62.86
2018-07-22T05:49:38.998Z,63.06
2018-07-22T05:50:19.579Z,62.66
2018-07-22T05:51:00.148Z,62.96
2018-07-22T05:51:40.718Z,62.28
2018-07-22T05:52:21.281Z,62.09
2018-07-22T05:53:01.859Z,62.09
2018-07-22T05:53:42.426Z,62.57
2018-07-22T05:54:23.005Z,62.96
2018-07-22T05:55:03.578Z,63.06
2018-07-22T05:55:44.136Z,62.86
2018-07-22T05:56:24.701Z,62.96
2018-07-22T05:57:05.277Z,63.06
2018-07-22T05:57:45.854Z,62.76
2018-07-22T05:58:26.412Z,61.71
2018-07-22T05:59:06.999Z,61.61
2018-07-22T05:59:47.563Z,61.61
2018-07-22T06:00:28.109Z,61.32
2018-07-22T06:01:08.683Z,61.61
2018-07-22T06:01:49.242Z,61.61
2018-07-22T06:02:29.820Z,60.74
2018-07-22T06:03:10.384Z,59.68
2018-07-22T06:03:50.949Z,59.39
2018-07-22T06:04:31.514Z,59.78
2018-07-22T06:05:12.080Z,60.06
2018-07-22T06:05:52.646Z,60.26
2018-07-22T06:06:33.213Z,60.93
2018-07-22T06:07:13.792Z,61.06
2018-07-22T06:07:54.361Z,62.09
2018-07-22T06:08:34.931Z,62.31
2018-07-22T06:09:15.507Z,62.7
2018-07-22T06:09:56.086Z,62.6
2018-07-22T06:10:36.654Z,62.6
2018-07-22T06:11:17.236Z,62.31
2018-07-22T06:11:57.920Z,62.6
2018-07-22T06:12:38.355Z,61.93
2018-07-22T06:13:18.925Z,60.1
2018-07-22T06:13:59.498Z,59.9
2018-07-22T06:14:40.060Z,60.1
2018-07-22T06:15:20.674Z,59.9
2018-07-22T06:16:01.251Z,60
2018-07-22T06:16:41.855Z,60
2018-07-22T06:17:22.378Z,60.1
2018-07-22T06:18:02.993Z,59.9
2018-07-22T06:18:43.541Z,60
2018-07-22T06:19:24.105Z,59.13
2018-07-22T06:20:04.681Z,58.17
2018-07-22T06:20:45.243Z,58.07
2018-07-22T06:21:25.813Z,57.68
2018-07-22T06:22:06.390Z,57.87
2018-07-22T06:22:46.957Z,56.52
2018-07-22T06:23:27.541Z,55.85
2018-07-22T06:24:08.079Z,56.04
2018-07-22T06:24:48.644Z,55.27
2018-07-22T06:25:29.208Z,55.76
2018-07-22T06:26:09.789Z,55.76
2018-07-22T06:26:50.347Z,55.76
2018-07-22T06:27:30.910Z,55.27
2018-07-22T06:28:11.483Z,55.68
2018-07-22T06:28:52.032Z,55.3
2018-07-22T06:29:32.599Z,53.53
2018-07-22T06:30:13.172Z,53.27
2018-07-22T06:30:53.746Z,53.08
2018-07-22T06:31:34.335Z,53.34
2018-07-22T06:32:14.910Z,53.15
2018-07-22T06:32:55.524Z,53.85
2018-07-22T06:33:36.051Z,54.43
2018-07-22T06:34:16.622Z,54.53
2018-07-22T06:34:57.205Z,54.62
2018-07-22T06:35:37.768Z,54.14
2018-07-22T06:36:18.329Z,53.75
2018-07-22T06:36:58.893Z,54.43
2018-07-22T06:37:39.468Z,53.85
2018-07-22T06:38:20.030Z,54.05
2018-07-22T06:39:00.596Z,53.85
2018-07-22T06:39:41.165Z,53.27
2018-07-22T06:40:21.726Z,53.27
2018-07-22T06:41:02.292Z,53.27
2018-07-22T06:41:42.859Z,53.17
2018-07-22T06:42:23.438Z,53.47
2018-07-22T06:43:04.010Z,54.05
2018-07-22T06:43:44.561Z,53.56
2018-07-22T06:44:25.118Z,53.75
2018-07-22T06:45:05.686Z,53.17
2018-07-22T06:45:46.264Z,53.75
2018-07-22T06:46:26.833Z,53.66
2018-07-22T06:47:07.396Z,53.85
2018-07-22T06:47:47.956Z,53.85
2018-07-22T06:48:28.525Z,53.95
2018-07-22T06:49:09.100Z,54.72
2018-07-22T06:49:49.654Z,54.82
2018-07-22T06:50:30.242Z,54.82
2018-07-22T06:51:10.812Z,54.43
2018-07-22T06:51:51.389Z,54.62
2018-07-22T06:52:31.962Z,54.94
2018-07-22T06:53:12.520Z,54.65
2018-07-22T06:53:53.269Z,54.65
2018-07-22T06:54:33.801Z,54.07
2018-07-22T06:55:14.490Z,53.97
2018-07-22T06:55:55.406Z,53.88
2018-07-22T06:56:35.970Z,53.88
2018-07-22T06:57:16.683Z,53.78
2018-07-22T06:57:57.260Z,54.55
2018-07-22T06:58:37.961Z,53.97
2018-07-22T06:59:18.874Z,53.39
2018-07-22T06:59:59.466Z,52.65
2018-07-22T07:00:40.358Z,52.26
2018-07-22T07:01:21.012Z,52.23
2018-07-22T07:02:01.611Z,52.45
2018-07-22T07:02:42.180Z,52.26
2018-07-22T07:03:22.781Z,51.39
2018-07-22T07:04:03.357Z,51.29
2018-07-22T07:04:43.926Z,51.29
2018-07-22T07:05:24.533Z,51.49
2018-07-22T07:06:05.085Z,51.97
2018-07-22T07:06:45.711Z,51.68
2018-07-22T07:07:26.389Z,51.97
2018-07-22T07:08:06.941Z,51.59
2018-07-22T07:08:47.636Z,51.97
2018-07-22T07:09:28.201Z,51.78
2018-07-22T07:10:08.772Z,51.49
2018-07-22T07:10:49.516Z,51.68
2018-07-22T07:11:30.062Z,51.59
2018-07-22T07:12:10.633Z,51.39
2018-07-22T07:12:51.205Z,51.49
2018-07-22T07:13:31.787Z,51.68
2018-07-22T07:14:12.357Z,51.68
2018-07-22T07:14:52.925Z,51.87
2018-07-22T07:15:33.501Z,52.45
2018-07-22T07:16:14.385Z,52.55
2018-07-22T07:16:54.963Z,52.55
2018-07-22T07:17:35.529Z,52.39
2018-07-22T07:18:16.094Z,52.84
2018-07-22T07:18:56.660Z,52.48
2018-07-22T07:19:37.221Z,52.77
2018-07-22T07:20:17.858Z,52.39
2018-07-22T07:20:58.414Z,51.87
2018-07-22T07:21:38.979Z,51.42
2018-07-22T07:22:19.556Z,50.93
2018-07-22T07:23:00.132Z,50.74
2018-07-22T07:23:40.714Z,50.74
2018-07-22T07:24:21.279Z,50.16
2018-07-22T07:25:01.851Z,49.97
2018-07-22T07:25:42.419Z,49.29
2018-07-22T07:26:22.969Z,48.32
2018-07-22T07:27:03.541Z,47.74
2018-07-22T07:27:44.117Z,47.84
2018-07-22T07:28:24.684Z,47.36
2018-07-22T07:29:05.251Z,48.03
2018-07-22T07:29:45.827Z,47.16
2018-07-22T07:30:26.401Z,47.07
2018-07-22T07:31:06.961Z,47.36
2018-07-22T07:31:47.518Z,47.36
2018-07-22T07:32:28.102Z,47.65
2018-07-22T07:33:08.671Z,48.13
2018-07-22T07:33:49.235Z,47.28
2018-07-22T07:34:29.807Z,46.8
2018-07-22T07:35:10.373Z,47.58
2018-07-22T07:35:50.932Z,46.7
2018-07-22T07:36:31.510Z,46.12
2018-07-22T07:37:12.067Z,46.03
2018-07-22T07:37:52.638Z,44.67
2018-07-22T07:38:33.206Z,44.29
2018-07-22T07:39:13.787Z,42.93
2018-07-22T07:39:54.367Z,42.45
2018-07-22T07:40:34.952Z,41.19
2018-07-22T07:41:15.510Z,41.09
2018-07-22T07:41:56.078Z,42.16
2018-07-22T07:42:36.643Z,42.07
2018-07-22T07:43:17.205Z,42.07
2018-07-22T07:43:57.769Z,44.19
2018-07-22T07:44:38.336Z,44.12
2018-07-22T07:45:18.917Z,44.31
2018-07-22T07:45:59.490Z,44.89
2018-07-22T07:46:40.087Z,45.57
2018-07-22T07:47:20.684Z,45.98
2018-07-22T07:48:01.280Z,44.53
2018-07-22T07:48:41.860Z,44.53
2018-07-22T07:49:22.426Z,45.59
2018-07-22T07:50:03.004Z,45.59
2018-07-22T07:50:43.573Z,45.2
2018-07-22T07:51:24.149Z,44.53
2018-07-22T07:52:04.724Z,44.04
2018-07-22T07:52:45.300Z,43.95
2018-07-22T07:53:25.970Z,45.49
2018-07-22T07:54:06.514Z,47.52
2018-07-22T07:54:47.091Z,47.33
2018-07-22T07:55:27.669Z,47.55
2018-07-22T07:56:08.253Z,47.14
2018-07-22T07:56:48.824Z,46.08
2018-07-22T07:57:29.400Z,46.08
2018-07-22T07:58:09.984Z,47.04
2018-07-22T07:58:50.552Z,47.14
2018-07-22T07:59:31.157Z,44.23
2018-07-22T08:00:11.700Z,42.78
2018-07-22T08:00:52.272Z,43.85
2018-07-22T08:01:32.839Z,44.04
2018-07-22T08:02:13.414Z,44.53
2018-07-22T08:02:53.987Z,43.07
2018-07-22T08:03:34.588Z,42.97
2018-07-22T08:04:15.159Z,43.37
2018-07-22T08:04:55.732Z,43.55
2018-07-22T08:05:36.334Z,42.88
2018-07-22T08:06:16.880Z,42.49
2018-07-22T08:06:57.459Z,42.2
2018-07-22T08:07:38.074Z,42.4
2018-07-22T08:08:18.603Z,42.59
2018-07-22T08:08:59.180Z,42.59
2018-07-22T08:09:39.748Z,42.3
2018-07-22T08:10:20.312Z,42.1
2018-07-22T08:11:00.873Z,42.3
2018-07-22T08:11:41.448Z,42.88
2018-07-22T08:12:21.992Z,42.88
2018-07-22T08:13:02.565Z,43.17
2018-07-22T08:13:43.138Z,43.65
2018-07-22T08:14:23.716Z,43.37
2018-07-22T08:15:04.286Z,43.17
2018-07-22T08:15:44.878Z,42.4
2018-07-22T08:16:25.442Z,42.1
2018-07-22T08:17:06.006Z,43.65
2018-07-22T08:17:46.585Z,42.3
2018-07-22T08:18:27.164Z,41.33
2018-07-22T08:19:07.759Z,40.84
2018-07-22T08:19:48.297Z,40.36
2018-07-22T08:20:28.865Z,40.46
2018-07-22T08:21:09.447Z,40.07
2018-07-22T08:21:50.126Z,39.78
2018-07-22T08:22:30.601Z,41.55
2018-07-22T08:23:11.178Z,40.38
2018-07-22T08:23:51.753Z,40.09
2018-07-22T08:24:32.325Z,40.48
2018-07-22T08:25:12.895Z,39.22
2018-07-22T08:25:53.452Z,38.93
2018-07-22T08:26:34.043Z,39.8
2018-07-22T08:27:14.614Z,39.03
2018-07-22T08:27:55.190Z,39.03
2018-07-22T08:28:35.763Z,39.32
2018-07-22T08:29:16.341Z,40.09
2018-07-22T08:29:56.935Z,39.41
2018-07-22T08:30:37.587Z,38.54
2018-07-22T08:31:18.069Z,39.03
2018-07-22T08:31:58.640Z,39.12
2018-07-22T08:32:39.204Z,39.51
2018-07-22T08:33:19.776Z,40.58
2018-07-22T08:34:00.350Z,40.21
2018-07-22T08:34:40.920Z,40.59
2018-07-22T08:35:21.498Z,41.08
2018-07-22T08:36:02.074Z,40.99
2018-07-22T08:36:42.663Z,41.08
2018-07-22T08:37:23.225Z,40.52
2018-07-22T08:38:03.784Z,39.16
2018-07-22T08:38:44.366Z,39.06
2018-07-22T08:39:24.933Z,39.84
2018-07-22T08:40:05.499Z,38.48
2018-07-22T08:40:46.088Z,38.19
2018-07-22T08:41:26.716Z,39.94
2018-07-22T08:42:07.286Z,40.03
2018-07-22T08:42:47.851Z,38.39
2018-07-22T08:43:28.445Z,39.45
2018-07-22T08:44:09.023Z,39.84